Houlton, ME

21:42 EST le 26 novembre 2014 (GMT -0500)
Houlton International | Change Station
CLOSE
Current Station
Aéroport
Location: Houlton,
Altitude: 492 ft
Stations météo à proximité
Avis météorologiques actifs: Winter Storm Warning Préavis actif: Record Report, Public Information Statement

Alt. 492 ft 46.12 °N, 67.79 °W | Updated 49 minutes ago

Neige
Neige
29 ° F
Paraît 18 ° F
N
15
Vent Variable Vent de NNE

Aujourd'hui
Haut(e) -- | Bas -- ° F
--% Risque de précip.
Hier
Haut(e) -- | Bas -- ° F
Precip. -- pouce
6:46 AM 3:49 PM
Lune montante, 25% visible
Pression 30.06 pouce
Visibilité 0.5 Miles terrestres
Nuages Nuages épars 400 ft
Couvert 800 ft
Refroidissement éolien 18 ° F
Point de rosée 27 ° F
Humidité 92%
Précipitations 0.09 pouce
Profondeur de la couche neigeuse Non disponible.
UV 0 sur 12
Pollen .10 sur 12
Qualité de l'air Non disponible.
Flu Activity Non disponible.
METAR KHUL 270153Z AUTO 02013KT 1/2SM SN FZFG SCT004 OVC008 M02/M03 A3003 RMK AO2 PRESFR SLP177 P0004 T10171028

More Conditions Fewer Conditions

Pression 30.06 pouce
Visibilité 0.5 Miles terrestres
Nuages Nuages épars 400 ft
Couvert 800 ft
Refroidissement éolien 18 ° F
Point de rosée 27 ° F
Humidité 92%
Précipitations 0.09 pouce
Profondeur de la couche neigeuse Non disponible.
UV 0 sur 12
Pollen .10 sur 12
Qualité de l'air Non disponible.
Flu Activity Non disponible.
METAR KHUL 270153Z AUTO 02013KT 1/2SM SN FZFG SCT004 OVC008 M02/M03 A3003 RMK AO2 PRESFR SLP177 P0004 T10171028

More Conditions Fewer Conditions

10-Day Weather Forecast

Almanac

Astronomie

Nov. 26, 2014 Lever Coucher
Temps réel
Crépuscule civil
Crépuscule nautique
Crépuscule astronomique
Lune
Durée de lumière visible
Longueur du jour
Tomorrow will be .
, % of the Moon is Illuminated

Extrêmes aujourd'hui

State Highs State Lows

Community

WunderPhotos

Upload Photos

1,773,949 Photos téléchargées !

WunderBlogs® & News

Nearby

Qualité de l'air

  Qualité de l'air Indice de la qualité de l'air Polluant
Not available.

Épaisseur de neige

Station Depth Altitude

Activité sismique

Ville Distance Mag. Time & Date
Minimum magnitude displayed is 2.5.

Températures des eaux côtières

Lieu Température

Stations météo à proximité